Time;durP1;ratioP1;P1;durP2;ratioP2;P2;SDS_P1;SDS_P2;PMS_P1;PMS_P2;Temp;Humidity;BMP_temperature;BMP_pressure;BME280_temperature;BME280_humidity;BME280_pressure;Samples;Min_cycle;Max_cycle;Signal;HPM_P1;HPM_P2
2022/03/14 00:02:17;;;;;;;11.10;7.60;;;8.10;69.50;;;;;;5042589;28;20041;-83
2022/03/14 00:04:43;;;;;;;12.23;7.78;;;8.10;70.10;;;;;;5032903;28;20087;-82
2022/03/14 00:07:10;;;;;;;11.48;7.93;;;8.00;69.60;;;;;;5018344;28;20033;-84
2022/03/14 00:09:36;;;;;;;14.18;7.68;;;8.00;70.10;;;;;;5053216;28;20132;-82
2022/03/14 00:12:07;;;;;;;13.50;8.07;;;7.90;69.80;;;;;;5024307;28;20084;-85
2022/03/14 00:14:33;;;;;;;14.25;8.23;;;7.90;70.70;;;;;;5047501;28;20111;-82
2022/03/14 00:17:06;;;;;;;11.35;7.45;;;8.00;71.50;;;;;;5057888;28;20111;-84
2022/03/14 00:19:33;;;;;;;11.75;8.15;;;7.70;70.40;;;;;;5021769;28;20041;-82
2022/03/14 00:22:04;;;;;;;13.90;8.35;;;7.70;70.80;;;;;;5026325;28;20084;-83
2022/03/14 00:24:29;;;;;;;11.38;7.97;;;7.60;71.80;;;;;;5041914;28;20041;-85
2022/03/14 00:26:55;;;;;;;12.93;8.07;;;7.60;71.10;;;;;;5022771;28;20037;-83
2022/03/14 00:29:21;;;;;;;;;;;7.40;71.50;;;;;;5039953;28;20398;-85
2022/03/14 00:31:47;;;;;;;10.88;7.78;;;7.30;75.40;;;;;;5039779;28;19916;-86
2022/03/14 00:34:14;;;;;;;15.60;8.00;;;7.20;71.40;;;;;;5024997;28;20088;-84
2022/03/14 00:36:43;;;;;;;12.73;8.18;;;7.20;71.40;;;;;;5038242;28;20041;-82
2022/03/14 00:39:09;;;;;;;10.23;7.30;;;7.20;72.90;;;;;;5040367;28;20056;-82
2022/03/14 00:41:35;;;;;;;14.77;7.72;;;7.10;72.60;;;;;;5043856;28;20037;-84
2022/03/14 00:44:02;;;;;;;15.27;6.57;;;7.10;72.60;;;;;;5026014;28;20040;-84
2022/03/14 00:46:28;;;;;;;11.13;7.57;;;7.10;74.30;;;;;;5054393;28;20045;-83
2022/03/14 00:48:55;;;;;;;11.35;7.00;;;7.30;72.60;;;;;;5041570;28;20041;-83
2022/03/14 00:51:21;;;;;;;15.07;7.45;;;7.50;74.00;;;;;;5043602;28;20048;-83
2022/03/14 00:53:47;;;;;;;;;;;7.50;73.50;;;;;;5022697;28;20049;-84
2022/03/14 00:56:20;;;;;;;13.82;7.88;;;7.60;76.10;;;;;;5040011;28;19921;-84
2022/03/14 00:58:47;;;;;;;13.15;7.00;;;7.60;73.70;;;;;;5042362;28;20471;-81
2022/03/14 01:01:13;;;;;;;12.45;7.50;;;6.60;72.40;;;;;;5058647;28;20049;-83
2022/03/14 01:03:38;;;;;;;11.60;6.85;;;7.90;73.80;;;;;;5025533;28;20047;-84
2022/03/14 01:06:04;;;;;;;12.48;7.13;;;8.50;74.60;;;;;;5021769;28;20042;-86
2022/03/14 01:08:30;;;;;;;13.40;6.65;;;8.10;74.10;;;;;;5022334;28;20041;-83
2022/03/14 01:10:55;;;;;;;8.90;6.60;;;8.10;74.20;;;;;;5035646;28;20395;-83
2022/03/14 01:13:21;;;;;;;8.30;6.22;;;8.30;75.10;;;;;;5023951;28;20113;-82
2022/03/14 01:15:47;;;;;;;13.60;7.40;;;8.30;75.00;;;;;;5022180;28;20206;-84
2022/03/14 01:18:13;;;;;;;12.38;6.97;;;8.40;75.40;;;;;;5004098;28;20049;-84
2022/03/14 01:20:40;;;;;;;11.07;6.50;;;8.60;75.60;;;;;;5020773;28;20482;-84
2022/03/14 01:23:05;;;;;;;11.63;7.20;;;8.70;75.80;;;;;;5048268;28;20056;-82
2022/03/14 01:25:31;;;;;;;13.55;7.32;;;8.70;76.20;;;;;;5049305;28;20402;-83
2022/03/14 01:27:58;;;;;;;12.68;6.95;;;8.80;76.50;;;;;;5043272;28;20061;-85
2022/03/14 01:30:24;;;;;;;11.68;6.32;;;8.90;76.50;;;;;;5043414;28;20054;-81
2022/03/14 01:32:57;;;;;;;10.07;6.88;;;8.90;77.40;;;;;;5042786;28;20044;-83
2022/03/14 01:35:23;;;;;;;10.30;5.75;;;9.00;77.10;;;;;;5041355;28;20503;-84
2022/03/14 01:37:49;;;;;;;11.40;7.32;;;9.10;77.50;;;;;;5015425;28;20052;-84
2022/03/14 01:40:19;;;;;;;9.95;6.40;;;9.20;78.10;;;;;;5009277;28;20040;-85
2022/03/14 01:42:46;;;;;;;9.00;5.75;;;9.30;78.70;;;;;;5022804;28;20486;-82
2022/03/14 01:45:13;;;;;;;13.85;6.07;;;9.30;78.40;;;;;;5032360;28;20032;-83
2022/03/14 01:47:41;;;;;;;11.20;6.45;;;9.30;79.20;;;;;;5060475;28;20108;-84
2022/03/14 01:50:08;;;;;;;11.05;6.75;;;9.30;79.20;;;;;;5040863;28;20071;-86
2022/03/14 01:52:34;;;;;;;12.95;6.10;;;9.30;79.20;;;;;;5044017;28;20075;-83
2022/03/14 01:55:02;;;;;;;11.43;7.43;;;9.30;79.60;;;;;;5037893;28;20041;-83
2022/03/14 01:57:29;;;;;;;13.20;6.43;;;9.30;80.10;;;;;;5042555;28;20123;-85
2022/03/14 01:59:55;;;;;;;10.88;6.40;;;9.30;80.40;;;;;;5040802;28;20032;-85
2022/03/14 02:02:21;;;;;;;8.75;5.95;;;9.30;81.20;;;;;;5022711;28;20581;-84
2022/03/14 02:04:47;;;;;;;9.85;6.35;;;9.30;81.60;;;;;;5025049;28;20474;-85
2022/03/14 02:07:13;;;;;;;;;;;9.30;81.60;;;;;;5042659;28;20163;-82
2022/03/14 02:09:39;;;;;;;11.43;6.30;;;9.20;82.70;;;;;;5046782;28;19956;-85
2022/03/14 02:12:09;;;;;;;12.02;6.15;;;9.20;81.80;;;;;;5041506;28;20033;-85
2022/03/14 02:14:39;;;;;;;10.55;5.93;;;9.10;83.80;;;;;;5051524;28;20044;-86
2022/03/14 02:17:13;;;;;;;11.45;5.72;;;9.10;82.60;;;;;;5038221;28;20037;-83
2022/03/14 02:19:40;;;;;;;9.82;6.22;;;9.10;83.30;;;;;;5053494;28;20040;-83
2022/03/14 02:22:14;;;;;;;10.80;5.82;;;9.00;83.30;;;;;;5057837;28;20405;-87
2022/03/14 02:24:44;;;;;;;12.75;6.18;;;8.90;83.70;;;;;;5042717;28;20037;-85
2022/03/14 02:27:11;;;;;;;12.57;6.15;;;8.80;84.00;;;;;;5029707;28;20037;-83
2022/03/14 02:29:39;;;;;;;9.73;6.03;;;8.70;84.20;;;;;;5024192;28;20081;-83
2022/03/14 02:32:06;;;;;;;9.57;5.80;;;8.70;84.80;;;;;;5066234;28;20041;-86
2022/03/14 02:34:32;;;;;;;12.43;6.03;;;8.70;85.00;;;;;;5034556;28;20627;-84
2022/03/14 02:36:58;;;;;;;11.63;6.43;;;8.70;85.60;;;;;;5058984;28;20049;-84
2022/03/14 02:39:24;;;;;;;14.10;6.75;;;8.70;86.10;;;;;;5024887;28;20474;-85
2022/03/14 02:41:50;;;;;;;11.57;6.65;;;8.60;85.70;;;;;;5044093;28;20064;-85
2022/03/14 02:44:17;;;;;;;;;;;8.70;86.00;;;;;;5042133;28;20067;-86
2022/03/14 02:46:42;;;;;;;9.52;5.82;;;8.90;87.70;;;;;;5058288;28;19931;-86
2022/03/14 02:49:10;;;;;;;9.82;6.05;;;9.10;86.20;;;;;;5041354;28;20049;-86
2022/03/14 02:51:41;;;;;;;8.65;5.45;;;8.70;86.70;;;;;;5051088;28;20077;-83
2022/03/14 02:54:08;;;;;;;12.27;6.43;;;8.80;86.80;;;;;;5041754;28;20103;-84
2022/03/14 02:56:36;;;;;;;10.02;6.30;;;8.80;87.20;;;;;;5021338;28;20120;-84
2022/03/14 02:59:02;;;;;;;12.48;6.13;;;8.80;87.30;;;;;;5025798;28;20482;-84
2022/03/14 03:01:28;;;;;;;8.93;5.68;;;8.80;88.30;;;;;;5032076;28;20544;-84
2022/03/14 03:03:54;;;;;;;10.48;5.82;;;8.80;87.90;;;;;;5003899;28;20136;-84
2022/03/14 03:06:23;;;;;;;9.82;5.90;;;8.90;89.20;;;;;;5038418;28;20033;-84
2022/03/14 03:08:50;;;;;;;13.35;6.10;;;8.90;89.00;;;;;;5063782;28;20032;-83
2022/03/14 03:11:22;;;;;;;8.65;5.32;;;8.90;88.50;;;;;;5058864;28;20051;-85
2022/03/14 03:13:48;;;;;;;13.13;5.80;;;8.90;89.10;;;;;;5046129;28;20055;-83
2022/03/14 03:16:16;;;;;;;;;;;8.90;90.20;;;;;;5061934;28;20041;-81
2022/03/14 03:18:44;;;;;;;12.57;5.10;;;8.90;91.90;;;;;;5032644;28;19987;-86
2022/03/14 03:21:09;;;;;;;11.93;5.38;;;8.90;90.50;;;;;;5039884;28;20041;-85
2022/03/14 03:23:35;;;;;;;10.32;5.53;;;8.90;90.50;;;;;;5042775;28;20461;-83
2022/03/14 03:26:04;;;;;;;6.93;5.03;;;8.80;90.60;;;;;;5040961;28;20480;-84
2022/03/14 03:28:35;;;;;;;9.10;5.50;;;8.80;91.10;;;;;;5040838;28;20037;-83
2022/03/14 03:31:21;;;;;;;11.43;6.25;;;8.80;91.00;;;;;;5038195;28;20045;-84
2022/03/14 03:33:50;;;;;;;12.43;5.72;;;8.80;92.30;;;;;;5054163;28;20528;-83
2022/03/14 03:36:17;;;;;;;8.93;5.50;;;8.80;91.50;;;;;;5025425;28;20394;-87
2022/03/14 03:38:44;;;;;;;10.98;5.72;;;8.80;91.70;;;;;;5040676;28;20048;-81
2022/03/14 03:41:09;;;;;;;9.60;6.20;;;8.80;91.90;;;;;;5040723;28;20486;-85
2022/03/14 03:43:36;;;;;;;9.93;5.75;;;8.70;92.00;;;;;;5024423;28;20041;-83
2022/03/14 03:46:02;;;;;;;10.63;6.97;;;8.70;92.30;;;;;;5024749;28;20072;-83
2022/03/14 03:48:29;;;;;;;10.32;6.75;;;8.60;92.30;;;;;;5033698;28;20044;-84
2022/03/14 03:50:55;;;;;;;10.93;6.57;;;8.60;92.30;;;;;;5014982;28;20386;-84
2022/03/14 03:53:21;;;;;;;12.23;7.18;;;8.50;92.70;;;;;;5009130;28;20045;-84
2022/03/14 03:55:47;;;;;;;10.82;6.95;;;8.50;92.70;;;;;;5038561;28;20037;-83
2022/03/14 03:58:14;;;;;;;12.10;6.82;;;8.40;93.00;;;;;;5039414;28;20053;-84
2022/03/14 04:00:40;;;;;;;11.95;6.72;;;8.40;93.00;;;;;;5042204;28;20052;-86
2022/03/14 04:03:05;;;;;;;10.20;6.85;;;8.30;92.90;;;;;;5027567;28;20041;-83
2022/03/14 04:05:31;;;;;;;10.63;7.22;;;8.30;93.50;;;;;;5027163;28;20037;-82
2022/03/14 04:07:59;;;;;;;11.05;7.88;;;8.20;93.90;;;;;;5007101;28;20047;-84
2022/03/14 04:10:27;;;;;;;8.40;6.07;;;8.20;94.00;;;;;;5006202;28;20041;-82
2022/03/14 04:12:54;;;;;;;12.55;6.82;;;8.10;94.00;;;;;;5048381;28;20041;-82
2022/03/14 04:15:21;;;;;;;9.60;6.15;;;8.10;94.20;;;;;;5056143;28;20051;-83
2022/03/14 04:17:47;;;;;;;11.52;6.30;;;8.10;94.30;;;;;;5046378;28;20048;-83
2022/03/14 04:20:12;;;;;;;12.23;6.30;;;8.10;93.70;;;;;;5059992;28;20118;-83
2022/03/14 04:22:39;;;;;;;8.63;6.07;;;8.10;94.10;;;;;;5039278;28;20406;-83
2022/03/14 04:25:07;;;;;;;9.73;6.45;;;8.00;94.40;;;;;;5041520;28;20128;-83
2022/03/14 04:27:33;;;;;;;8.95;6.45;;;8.00;94.70;;;;;;5052530;28;20041;-84
2022/03/14 04:30:02;;;;;;;12.30;6.60;;;8.00;95.20;;;;;;5064433;28;20033;-81
2022/03/14 04:32:29;;;;;;;10.95;5.65;;;7.90;95.40;;;;;;5052919;28;20055;-83
2022/03/14 04:34:55;;;;;;;8.70;5.75;;;7.90;95.60;;;;;;5009783;28;20057;-82
2022/03/14 04:37:21;;;;;;;10.00;5.35;;;7.90;95.90;;;;;;5023214;28;20465;-83
2022/03/14 04:39:47;;;;;;;8.38;5.85;;;7.90;96.20;;;;;;5033021;28;20037;-82
2022/03/14 04:42:15;;;;;;;8.32;5.55;;;7.90;96.60;;;;;;5021969;28;20144;-83
2022/03/14 04:44:41;;;;;;;9.27;5.88;;;7.90;95.90;;;;;;5040879;28;20057;-83
2022/03/14 04:47:06;;;;;;;8.40;5.28;;;7.90;96.80;;;;;;5039772;28;20056;-83
2022/03/14 04:49:32;;;;;;;8.90;5.43;;;6.70;96.20;;;;;;5042811;28;20048;-82
2022/03/14 04:51:59;;;;;;;9.10;4.80;;;8.00;96.70;;;;;;5037286;28;20042;-85
2022/03/14 04:54:25;;;;;;;7.78;5.25;;;8.00;96.90;;;;;;5023935;28;20037;-86
2022/03/14 04:56:51;;;;;;;8.77;4.40;;;8.00;97.40;;;;;;5056127;28;20041;-85
2022/03/14 04:59:17;;;;;;;7.28;5.60;;;8.00;97.40;;;;;;5040799;28;20041;-84
2022/03/14 05:01:43;;;;;;;8.98;5.53;;;8.00;97.60;;;;;;5022084;28;20045;-85
2022/03/14 05:04:09;;;;;;;;;;;8.00;97.80;;;;;;5041074;28;20048;-84
2022/03/14 05:06:34;;;;;;;7.85;4.47;;;8.00;99.90;;;;;;5039962;28;19928;-82
2022/03/14 05:09:01;;;;;;;9.07;5.20;;;8.00;98.30;;;;;;5028481;28;20041;-83
2022/03/14 05:11:27;;;;;;;8.95;5.10;;;7.90;98.20;;;;;;5024997;28;20041;-84
2022/03/14 05:13:53;;;;;;;6.15;4.15;;;7.90;97.70;;;;;;5026960;28;20049;-86
2022/03/14 05:16:19;;;;;;;8.02;4.65;;;7.90;98.80;;;;;;5041601;28;20054;-82
2022/03/14 05:18:45;;;;;;;;;;;7.90;99.00;;;;;;5054657;28;20033;-83
2022/03/14 05:21:12;;;;;;;8.20;4.22;;;8.00;99.90;;;;;;5017625;28;20016;-87
2022/03/14 05:23:37;;;;;;;5.80;3.85;;;8.00;98.80;;;;;;5038195;28;20063;-84
2022/03/14 05:26:04;;;;;;;7.50;4.50;;;8.20;99.30;;;;;;5020039;28;20462;-85
2022/03/14 05:28:30;;;;;;;6.55;4.22;;;8.00;99.40;;;;;;5020981;28;20048;-84
2022/03/14 05:30:56;;;;;;;6.38;4.15;;;8.00;99.20;;;;;;5037560;28;20037;-86
2022/03/14 05:33:22;;;;;;;6.78;3.95;;;8.00;99.70;;;;;;5050878;28;20119;-86
2022/03/14 05:35:48;;;;;;;7.00;4.25;;;8.00;99.70;;;;;;5017881;28;20079;-83
2022/03/14 05:38:15;;;;;;;6.47;4.05;;;8.00;99.90;;;;;;5060410;28;20040;-85
2022/03/14 05:40:40;;;;;;;;;;;8.00;99.90;;;;;;5005105;28;20099;-84
2022/03/14 05:43:11;;;;;;;4.38;3.30;;;8.00;99.90;;;;;;5029691;28;19925;-84
2022/03/14 05:45:37;;;;;;;5.32;3.88;;;8.00;99.90;;;;;;5051921;28;20044;-83
2022/03/14 05:48:04;;;;;;;7.30;4.20;;;8.00;99.90;;;;;;5025431;28;20378;-84
2022/03/14 05:50:29;;;;;;;7.43;3.85;;;8.00;99.90;;;;;;5036346;28;20494;-87
2022/03/14 05:52:55;;;;;;;8.52;4.25;;;8.00;99.90;;;;;;5063045;28;20063;-82
2022/03/14 05:55:21;;;;;;;6.97;4.50;;;8.10;99.90;;;;;;5041980;28;20109;-82
2022/03/14 05:57:47;;;;;;;5.72;3.35;;;8.10;99.90;;;;;;5024046;28;20110;-84
2022/03/14 06:00:20;;;;;;;5.80;4.10;;;8.10;99.90;;;;;;5023985;28;20060;-83
2022/03/14 06:02:47;;;;;;;7.82;4.65;;;8.10;99.90;;;;;;5025946;28;20037;-81
2022/03/14 06:05:14;;;;;;;6.38;3.28;;;8.10;99.90;;;;;;5037789;28;20048;-83
2022/03/14 06:07:40;;;;;;;6.57;3.75;;;8.10;99.90;;;;;;5046503;28;20099;-82
2022/03/14 06:10:08;;;;;;;;;;;8.10;99.90;;;;;;5050543;28;20037;-82
2022/03/14 06:12:35;;;;;;;7.25;3.97;;;8.10;99.90;;;;;;5024413;28;19923;-83
2022/03/14 06:15:03;;;;;;;4.68;3.10;;;8.20;99.90;;;;;;5024713;28;20106;-85
2022/03/14 06:17:28;;;;;;;6.15;3.38;;;8.20;99.90;;;;;;5073441;28;20079;-84
2022/03/14 06:19:55;;;;;;;4.22;3.00;;;8.20;99.90;;;;;;5026310;28;20049;-82
2022/03/14 06:22:21;;;;;;;;;;;8.30;99.90;;;;;;5014356;28;20037;-82
2022/03/14 06:24:49;;;;;;;8.35;3.25;;;8.30;99.90;;;;;;5045496;28;19928;-82
2022/03/14 06:27:21;;;;;;;5.13;3.22;;;8.30;99.90;;;;;;5035941;28;20045;-79
2022/03/14 06:29:48;;;;;;;4.95;2.50;;;8.40;99.90;;;;;;5021987;28;20064;-84
2022/03/14 06:32:14;;;;;;;4.47;3.05;;;8.40;99.90;;;;;;5050868;28;20052;-84
2022/03/14 06:34:40;;;;;;;;;;;8.40;99.90;;;;;;5010706;28;20106;-85
2022/03/14 06:37:07;;;;;;;3.75;2.85;;;8.50;99.90;;;;;;5058619;28;19920;-83
2022/03/14 06:39:35;;;;;;;4.90;2.88;;;8.50;99.90;;;;;;5025115;28;20044;-84
2022/03/14 06:42:09;;;;;;;5.05;2.90;;;8.50;99.90;;;;;;5058333;28;20390;-84
2022/03/14 06:44:40;;;;;;;9.13;3.45;;;8.60;99.90;;;;;;5007399;28;20038;-86
2022/03/14 06:47:08;;;;;;;3.42;2.90;;;8.70;99.90;;;;;;5037110;28;20041;-82
2022/03/14 06:49:35;;;;;;;5.40;3.22;;;8.70;99.90;;;;;;5043815;28;20063;-84
2022/03/14 06:52:01;;;;;;;4.95;3.58;;;8.70;99.90;;;;;;5038881;28;20305;-81
2022/03/14 06:54:27;;;;;;;5.20;3.38;;;8.70;99.90;;;;;;5040782;28;20139;-83
2022/03/14 06:56:53;;;;;;;7.85;3.22;;;8.80;99.90;;;;;;5036433;28;20133;-82
2022/03/14 06:59:21;;;;;;;4.70;2.88;;;8.80;99.90;;;;;;5045070;28;20402;-83
2022/03/14 07:01:47;;;;;;;3.97;2.83;;;8.80;99.90;;;;;;5033661;28;20049;-83
2022/03/14 07:04:12;;;;;;;4.88;2.92;;;8.80;99.90;;;;;;5000718;28;20410;-84
2022/03/14 07:06:38;;;;;;;7.32;3.78;;;8.90;99.90;;;;;;5049207;28;20072;-83
2022/03/14 07:09:04;;;;;;;4.70;2.90;;;8.90;99.90;;;;;;5040548;28;20546;-82
2022/03/14 07:11:30;;;;;;;;;;;8.90;99.90;;;;;;5049875;28;20097;-79
2022/03/14 07:13:56;;;;;;;6.63;3.88;;;8.90;99.90;;;;;;5023307;28;20369;-81
2022/03/14 07:16:22;;;;;;;4.60;3.25;;;9.00;99.90;;;;;;5021456;28;20044;-81
2022/03/14 07:18:48;;;;;;;4.88;3.63;;;8.90;99.90;;;;;;5056214;28;20044;-81
2022/03/14 07:21:14;;;;;;;4.82;3.22;;;8.90;99.90;;;;;;5021111;28;20179;-82
2022/03/14 07:23:45;;;;;;;5.90;3.17;;;8.90;99.90;;;;;;5031140;28;20103;-81
2022/03/14 07:26:11;;;;;;;5.68;3.70;;;8.90;99.90;;;;;;5023276;28;20462;-80
2022/03/14 07:28:38;;;;;;;5.35;3.42;;;8.90;99.90;;;;;;5016655;28;20076;-81
2022/03/14 07:31:05;;;;;;;7.07;4.25;;;9.00;99.90;;;;;;5007946;28;20053;-80
2022/03/14 07:33:31;;;;;;;5.63;3.58;;;9.00;99.90;;;;;;5038382;28;20402;-80
2022/03/14 07:35:57;;;;;;;6.72;3.88;;;8.90;99.90;;;;;;5052015;28;20048;-80
2022/03/14 07:38:23;;;;;;;7.75;4.57;;;9.00;99.90;;;;;;5036977;28;20059;-81
2022/03/14 07:40:48;;;;;;;7.20;4.03;;;9.10;99.90;;;;;;5023880;28;20046;-80
2022/03/14 07:43:16;;;;;;;5.63;4.38;;;9.10;99.90;;;;;;5036361;28;20509;-80
2022/03/14 07:45:42;;;;;;;6.68;3.72;;;9.10;99.90;;;;;;5046103;28;20051;-79
2022/03/14 07:48:08;;;;;;;5.18;4.00;;;9.20;99.90;;;;;;5054219;28;20032;-79
2022/03/14 07:50:33;;;;;;;5.15;3.63;;;9.20;99.90;;;;;;5018036;28;20082;-80
2022/03/14 07:52:59;;;;;;;5.65;3.78;;;9.20;99.90;;;;;;5042382;28;20546;-81
2022/03/14 07:55:25;;;;;;;6.63;3.97;;;9.20;99.90;;;;;;5015769;28;20096;-78
2022/03/14 07:57:52;;;;;;;6.32;3.83;;;9.20;99.90;;;;;;5033916;28;20048;-78
2022/03/14 08:00:19;;;;;;;5.03;3.75;;;9.20;99.90;;;;;;5025505;28;20041;-79
2022/03/14 08:02:47;;;;;;;7.13;4.10;;;9.20;99.90;;;;;;5056412;28;20113;-77
2022/03/14 08:05:15;;;;;;;5.65;3.38;;;9.10;99.90;;;;;;5041567;28;20120;-79
2022/03/14 08:07:46;;;;;;;6.78;3.72;;;9.10;99.90;;;;;;5050519;28;20037;-77
2022/03/14 08:10:15;;;;;;;6.55;3.92;;;8.20;99.90;;;;;;5050566;28;20045;-77
2022/03/14 08:12:51;;;;;;;5.80;3.53;;;9.10;99.90;;;;;;5035182;28;20086;-78
2022/03/14 08:15:31;;;;;;;10.15;3.72;;;9.10;99.90;;;;;;5031967;28;20045;-78
2022/03/14 08:18:01;;;;;;;8.98;4.47;;;9.10;99.90;;;;;;5032284;28;20055;-79
2022/03/14 08:20:28;;;;;;;7.30;4.05;;;9.10;99.90;;;;;;5042039;28;20048;-78
2022/03/14 08:22:57;;;;;;;6.60;3.70;;;9.20;99.90;;;;;;5050887;28;20251;-77
2022/03/14 08:25:24;;;;;;;11.95;4.70;;;9.20;99.90;;;;;;5045053;28;20071;-79
2022/03/14 08:27:50;;;;;;;6.22;4.20;;;9.30;99.90;;;;;;5031852;28;20059;-79
2022/03/14 08:30:17;;;;;;;7.32;4.07;;;9.30;99.90;;;;;;5031381;28;20486;-78
2022/03/14 08:32:44;;;;;;;6.47;3.97;;;9.40;99.90;;;;;;5041264;28;20045;-79
2022/03/14 08:35:11;;;;;;;8.65;4.20;;;9.40;99.90;;;;;;5022329;28;20557;-80
2022/03/14 08:37:39;;;;;;;8.85;4.13;;;9.40;99.90;;;;;;5014779;28;20363;-78
2022/03/14 08:40:08;;;;;;;8.30;3.67;;;9.40;99.90;;;;;;5028185;28;20099;-79
2022/03/14 08:42:34;;;;;;;6.88;4.35;;;9.50;99.90;;;;;;5023626;28;20049;-79
2022/03/14 08:45:00;;;;;;;8.25;4.45;;;9.50;99.90;;;;;;5039947;28;20121;-78
2022/03/14 08:47:26;;;;;;;8.15;4.93;;;9.50;99.90;;;;;;4999642;28;20370;-78
2022/03/14 08:49:52;;;;;;;6.38;4.30;;;9.50;99.90;;;;;;5036100;28;20116;-80
2022/03/14 08:52:18;;;;;;;14.98;4.93;;;9.50;99.90;;;;;;5032214;28;20096;-78
2022/03/14 08:54:44;;;;;;;5.00;3.97;;;9.50;99.90;;;;;;5012864;28;20056;-80
2022/03/14 08:57:10;;;;;;;6.60;3.80;;;9.60;99.90;;;;;;5015745;28;20097;-79
2022/03/14 08:59:36;;;;;;;6.25;3.95;;;9.60;99.90;;;;;;5011924;28;20498;-80
2022/03/14 09:02:07;;;;;;;7.95;4.28;;;9.60;99.90;;;;;;5022728;28;20041;-79
2022/03/14 09:04:32;;;;;;;7.40;4.28;;;9.60;99.90;;;;;;5023683;28;20046;-80
2022/03/14 09:06:58;;;;;;;9.65;4.53;;;9.60;99.90;;;;;;5006583;28;20148;-78
2022/03/14 09:09:24;;;;;;;7.18;4.00;;;9.60;99.90;;;;;;5010604;28;20053;-78
2022/03/14 09:11:50;;;;;;;6.38;3.90;;;9.70;99.90;;;;;;5011514;28;20163;-78
2022/03/14 09:14:15;;;;;;;5.80;4.18;;;9.70;99.90;;;;;;5021449;28;20049;-76
2022/03/14 09:16:41;;;;;;;8.50;4.22;;;9.70;99.90;;;;;;5018102;28;20494;-78
2022/03/14 09:19:07;;;;;;;6.00;4.28;;;9.70;99.90;;;;;;5024640;28;20045;-78
2022/03/14 09:21:33;;;;;;;;;;;9.80;99.90;;;;;;5031860;28;20108;-77
2022/03/14 09:24:01;;;;;;;7.60;4.93;;;9.80;99.90;;;;;;5004917;28;19921;-79
2022/03/14 09:26:30;;;;;;;7.50;4.63;;;9.90;99.90;;;;;;5035146;28;20124;-80
2022/03/14 09:28:56;;;;;;;9.05;5.05;;;9.90;99.90;;;;;;4986024;28;20100;-79
2022/03/14 09:31:22;;;;;;;8.02;4.82;;;9.90;99.90;;;;;;4998761;28;20067;-78
2022/03/14 09:33:48;;;;;;;7.80;5.03;;;10.00;99.90;;;;;;5035961;28;20065;-78
2022/03/14 09:36:15;;;;;;;10.73;4.78;;;10.00;99.90;;;;;;5034412;28;20102;-80
2022/03/14 09:38:42;;;;;;;7.75;5.13;;;10.00;99.90;;;;;;5039654;28;20079;-78
2022/03/14 09:41:09;;;;;;;8.00;5.97;;;10.00;99.90;;;;;;5067989;28;20048;-80
2022/03/14 09:43:40;;;;;;;7.13;4.90;;;10.00;99.90;;;;;;5062834;28;20067;-78
2022/03/14 09:46:07;;;;;;;8.25;5.53;;;10.00;99.90;;;;;;5040711;28;20486;-79
2022/03/14 09:48:37;;;;;;;8.57;6.60;;;10.00;99.90;;;;;;5044076;28;20131;-80
2022/03/14 09:51:07;;;;;;;8.00;5.10;;;10.00;99.90;;;;;;5057453;28;20458;-80
2022/03/14 09:53:34;;;;;;;8.10;5.10;;;9.90;99.90;;;;;;5020379;28;20512;-79
2022/03/14 09:56:00;;;;;;;8.75;4.85;;;9.90;99.90;;;;;;5056265;28;20394;-80
2022/03/14 09:58:26;;;;;;;;;;;9.90;99.90;;;;;;5041860;28;20517;-79
2022/03/14 10:00:53;;;;;;;8.65;6.10;;;9.90;99.90;;;;;;5043756;28;19943;-78
2022/03/14 10:03:21;;;;;;;6.25;4.60;;;9.90;99.90;;;;;;5054389;28;20080;-80
2022/03/14 10:05:47;;;;;;;10.07;6.60;;;9.90;99.90;;;;;;5037072;28;20474;-79
2022/03/14 10:08:14;;;;;;;8.95;5.78;;;9.80;99.90;;;;;;5013811;28;20484;-79
2022/03/14 10:10:39;;;;;;;8.90;5.97;;;9.80;99.90;;;;;;5038547;28;20115;-79
2022/03/14 10:13:10;;;;;;;8.38;6.57;;;9.70;99.90;;;;;;5036383;28;20083;-77
2022/03/14 10:15:37;;;;;;;10.70;7.40;;;9.70;99.90;;;;;;5044438;28;20048;-76
2022/03/14 10:18:18;;;;;;;14.00;9.15;;;9.60;99.90;;;;;;5034887;28;20047;-76
2022/03/14 10:21:05;;;;;;;20.52;12.52;;;9.60;99.90;;;;;;5052854;28;20083;-75
2022/03/14 10:23:37;;;;;;;21.05;10.57;;;9.50;99.90;;;;;;5039213;28;20505;-76
2022/03/14 10:26:06;;;;;;;16.25;9.35;;;9.40;99.90;;;;;;5051683;28;20119;-76
2022/03/14 10:28:38;;;;;;;17.52;11.07;;;9.30;99.90;;;;;;5051456;28;20175;-75
2022/03/14 10:31:05;;;;;;;20.67;12.45;;;9.20;99.90;;;;;;5035493;28;20040;-75
2022/03/14 10:33:32;;;;;;;21.58;11.55;;;9.20;99.90;;;;;;5054383;28;20065;-77
2022/03/14 10:36:00;;;;;;;20.52;10.75;;;9.10;99.90;;;;;;5038909;28;20044;-76
2022/03/14 10:38:26;;;;;;;18.63;10.98;;;9.10;99.90;;;;;;5038679;28;20102;-75
2022/03/14 10:40:57;;;;;;;17.00;9.45;;;9.10;99.90;;;;;;5055170;28;20485;-76
2022/03/14 10:43:32;;;;;;;20.75;10.10;;;9.10;99.90;;;;;;5038106;28;20063;-76
2022/03/14 10:45:59;;;;;;;23.55;11.35;;;9.20;99.90;;;;;;5056315;28;20040;-76
2022/03/14 10:48:43;;;;;;;13.32;7.97;;;9.30;99.90;;;;;;5054467;28;20385;-76
2022/03/14 10:51:15;;;;;;;14.63;7.85;;;9.30;99.90;;;;;;5055124;28;20036;-78
2022/03/14 10:53:46;;;;;;;17.02;8.13;;;9.30;99.90;;;;;;5027611;28;20110;-76
2022/03/14 10:56:14;;;;;;;17.45;8.45;;;9.40;99.90;;;;;;5036706;28;20048;-77
2022/03/14 10:58:40;;;;;;;11.52;6.95;;;9.40;99.90;;;;;;5038771;28;20359;-76
2022/03/14 11:01:11;;;;;;;11.50;6.78;;;9.40;99.90;;;;;;5068899;28;20127;-77
2022/03/14 11:03:41;;;;;;;10.98;6.72;;;9.40;99.90;;;;;;5037542;28;20082;-78
2022/03/14 11:06:13;;;;;;;16.80;7.68;;;9.50;99.90;;;;;;5018590;28;20047;-76
2022/03/14 11:08:51;;;;;;;13.05;7.45;;;9.50;99.90;;;;;;5057280;28;20052;-77
2022/03/14 11:11:21;;;;;;;17.00;6.63;;;9.50;99.90;;;;;;5065246;28;20037;-78
2022/03/14 11:13:55;;;;;;;13.68;6.95;;;9.50;99.90;;;;;;5021557;28;20162;-76
2022/03/14 11:16:29;;;;;;;15.77;7.28;;;9.50;99.90;;;;;;5058376;28;20047;-76
2022/03/14 11:18:56;;;;;;;11.23;6.53;;;9.50;99.90;;;;;;5057766;28;20097;-76
2022/03/14 11:21:27;;;;;;;14.15;7.00;;;9.50;99.90;;;;;;5044507;28;20562;-77
2022/03/14 11:23:54;;;;;;;12.25;5.35;;;9.50;99.90;;;;;;5053367;28;20040;-77
2022/03/14 11:26:23;;;;;;;15.52;7.03;;;9.50;99.90;;;;;;5054584;28;20072;-77
2022/03/14 11:28:50;;;;;;;12.75;6.78;;;9.50;99.90;;;;;;5055821;28;20490;-75
2022/03/14 11:31:21;;;;;;;12.57;6.45;;;9.50;99.90;;;;;;5039374;28;20063;-77
2022/03/14 11:33:48;;;;;;;10.60;6.15;;;9.50;99.90;;;;;;5069662;28;20154;-78
2022/03/14 11:36:18;;;;;;;13.15;6.68;;;9.50;99.90;;;;;;5023470;28;20391;-77
2022/03/14 11:38:45;;;;;;;14.27;6.90;;;9.50;99.90;;;;;;5041248;28;20052;-78
2022/03/14 11:41:11;;;;;;;8.98;5.40;;;9.50;99.90;;;;;;5023868;28;20490;-79
2022/03/14 11:43:40;;;;;;;14.85;6.25;;;9.50;99.90;;;;;;5053959;28;20120;-78
2022/03/14 11:46:07;;;;;;;10.85;5.72;;;9.50;99.90;;;;;;5054310;28;20170;-78
2022/03/14 11:48:34;;;;;;;15.90;7.38;;;9.50;99.90;;;;;;5017728;28;20413;-77
2022/03/14 11:51:06;;;;;;;15.95;6.60;;;9.60;99.90;;;;;;5052057;28;20033;-78
2022/03/14 11:53:36;;;;;;;13.60;5.47;;;9.60;99.90;;;;;;5055077;28;20048;-75
2022/03/14 11:56:08;;;;;;;9.90;5.88;;;9.60;99.90;;;;;;5056262;28;20046;-76
2022/03/14 11:58:42;;;;;;;11.93;5.88;;;9.60;99.90;;;;;;5054807;28;20037;-77
2022/03/14 12:01:15;;;;;;;12.80;6.05;;;9.60;99.90;;;;;;5024667;28;20048;-76
2022/03/14 12:04:00;;;;;;;13.63;6.97;;;9.60;99.90;;;;;;5041971;28;20047;-77
2022/03/14 12:06:47;;;;;;;15.73;6.57;;;9.60;99.90;;;;;;5066043;28;20044;-82
2022/03/14 12:09:25;;;;;;;19.77;7.95;;;9.60;99.90;;;;;;5048349;28;20370;-82
2022/03/14 12:11:52;;;;;;;10.80;5.85;;;9.70;99.90;;;;;;5054588;28;20029;-81
2022/03/14 12:14:43;;;;;;;13.02;6.30;;;9.70;99.90;;;;;;5055415;28;20351;-81
2022/03/14 12:17:15;;;;;;;10.80;5.75;;;9.70;99.90;;;;;;5041299;28;20044;-82
2022/03/14 12:19:48;;;;;;;14.35;6.63;;;9.80;99.90;;;;;;5063045;28;20136;-78
2022/03/14 12:22:24;;;;;;;11.98;6.15;;;9.80;99.90;;;;;;5052142;28;20850;-78
2022/03/14 12:24:50;;;;;;;9.63;5.05;;;9.80;99.90;;;;;;5042435;28;20402;-81
2022/03/14 12:27:22;;;;;;;12.45;6.22;;;9.80;99.90;;;;;;5020976;28;20052;-79
2022/03/14 12:29:50;;;;;;;17.70;6.05;;;9.80;99.90;;;;;;5036793;28;20072;-78
2022/03/14 12:32:35;;;;;;;16.00;7.85;;;9.80;99.90;;;;;;5049399;28;20128;-81
2022/03/14 12:35:12;;;;;;;15.95;8.77;;;9.80;99.90;;;;;;5040102;28;20049;-79
2022/03/14 12:37:50;;;;;;;11.45;7.30;;;9.90;99.90;;;;;;5049005;28;20521;-81
2022/03/14 12:40:21;;;;;;;19.65;9.40;;;9.80;99.90;;;;;;5046315;28;20051;-79
2022/03/14 12:42:51;;;;;;;12.30;7.25;;;9.90;99.90;;;;;;5059051;28;20040;-80
2022/03/14 12:45:31;;;;;;;14.50;7.80;;;10.00;99.90;;;;;;5044130;28;20214;-77
2022/03/14 12:48:02;;;;;;;16.48;8.93;;;10.10;99.90;;;;;;5029104;28;20054;-77
2022/03/14 12:50:45;;;;;;;18.67;8.15;;;10.10;99.90;;;;;;5028866;28;20068;-77
2022/03/14 12:53:27;;;;;;;20.10;9.50;;;10.20;99.90;;;;;;5058138;28;20051;-77
2022/03/14 12:55:56;;;;;;;17.05;8.57;;;10.40;99.90;;;;;;5058179;28;20052;-76
2022/03/14 12:58:33;;;;;;;12.52;7.93;;;10.50;99.90;;;;;;5062574;28;20036;-76
2022/03/14 13:01:01;;;;;;;18.65;9.38;;;10.60;99.90;;;;;;5058491;28;20036;-80